createdAt,value
2022-08-08T00:00:53.015Z,1011.23
2022-08-08T00:01:13.918Z,1011.21
2022-08-08T00:02:32.804Z,1011.20
2022-08-08T00:03:31.657Z,1011.19
2022-08-08T00:04:16.320Z,1011.16
2022-08-08T00:05:13.255Z,1011.19
2022-08-08T00:06:13.232Z,1011.13
2022-08-08T00:07:13.216Z,1011.14
2022-08-08T00:08:13.221Z,1011.15
2022-08-08T00:09:15.963Z,1011.14
2022-08-08T00:10:13.179Z,1011.15
2022-08-08T00:11:14.746Z,1011.15
2022-08-08T00:12:13.134Z,1011.15
2022-08-08T00:13:13.154Z,1011.18
2022-08-08T00:14:48.006Z,1011.17
2022-08-08T00:15:17.496Z,1011.13
2022-08-08T00:16:13.078Z,1011.15
2022-08-08T00:17:22.574Z,1011.17
2022-08-08T00:18:13.032Z,1011.18
2022-08-08T00:19:13.023Z,1011.20
2022-08-08T00:20:14.606Z,1011.19
2022-08-08T00:21:16.507Z,1011.21
2022-08-08T00:22:12.993Z,1011.20
2022-08-08T00:23:14.778Z,1011.18
2022-08-08T00:24:12.951Z,1011.20
2022-08-08T00:25:12.929Z,1011.23
2022-08-08T00:26:13.171Z,1011.17
2022-08-08T00:27:12.938Z,1011.20
2022-08-08T00:28:34.228Z,1011.20
2022-08-08T00:29:15.099Z,1011.19
2022-08-08T00:30:15.853Z,1011.16
2022-08-08T00:32:19.949Z,1011.18
2022-08-08T00:32:20.203Z,1011.25
2022-08-08T00:33:12.781Z,1011.22
2022-08-08T00:34:18.617Z,1011.26
2022-08-08T00:35:20.565Z,1011.26
2022-08-08T00:36:14.909Z,1011.24
2022-08-08T00:37:44.961Z,1011.22
2022-08-08T00:38:30.855Z,1011.20
2022-08-08T00:41:09.729Z,1011.19
2022-08-08T00:41:11.727Z,1011.19
2022-08-08T00:41:14.673Z,1011.17
2022-08-08T00:42:13.280Z,1011.17
2022-08-08T00:43:19.991Z,1011.16
2022-08-08T00:44:12.638Z,1011.21
2022-08-08T00:45:21.425Z,1011.21
2022-08-08T00:46:16.585Z,1011.20
2022-08-08T00:47:19.469Z,1011.22
2022-08-08T00:48:29.347Z,1011.20
2022-08-08T00:49:22.455Z,1011.22
2022-08-08T00:50:12.493Z,1011.20
2022-08-08T00:51:15.213Z,1011.23
2022-08-08T00:52:38.885Z,1011.22
2022-08-08T00:53:15.599Z,1011.23
2022-08-08T00:54:15.496Z,1011.22
2022-08-08T00:55:12.418Z,1011.25
2022-08-08T00:56:16.268Z,1011.27
2022-08-08T00:57:12.841Z,1011.26
2022-08-08T00:58:12.479Z,1011.27
2022-08-08T00:59:12.348Z,1011.26
2022-08-08T01:00:12.334Z,1011.31
2022-08-08T01:01:12.404Z,1011.28
2022-08-08T01:03:53.959Z,1011.31
2022-08-08T01:04:01.797Z,1011.30
2022-08-08T01:04:12.708Z,1011.28
2022-08-08T01:05:29.257Z,1011.27
2022-08-08T01:06:12.230Z,1011.28
2022-08-08T01:07:12.220Z,1011.24
2022-08-08T01:08:12.199Z,1011.25
2022-08-08T01:09:36.801Z,1011.25
2022-08-08T01:10:12.156Z,1011.24
2022-08-08T01:11:12.145Z,1011.21
2022-08-08T01:12:12.129Z,1011.24
2022-08-08T01:13:15.109Z,1011.23
2022-08-08T01:14:16.122Z,1011.28
2022-08-08T01:15:12.085Z,1011.27
2022-08-08T01:16:12.053Z,1011.24
2022-08-08T01:17:12.057Z,1011.26
2022-08-08T01:18:16.355Z,1011.29
2022-08-08T01:19:25.265Z,1011.27
2022-08-08T01:20:13.235Z,1011.28
2022-08-08T01:21:11.977Z,1011.33
2022-08-08T01:22:15.814Z,1011.31
2022-08-08T01:24:02.927Z,1011.32
2022-08-08T01:24:13.812Z,1011.35
2022-08-08T01:25:14.321Z,1011.31
2022-08-08T01:26:11.958Z,1011.37
2022-08-08T01:27:16.099Z,1011.38
2022-08-08T01:28:15.720Z,1011.38
2022-08-08T01:29:11.841Z,1011.38
2022-08-08T01:30:11.831Z,1011.37
2022-08-08T01:32:13.677Z,1011.36
2022-08-08T01:32:16.087Z,1011.35
2022-08-08T01:33:23.587Z,1011.40
2022-08-08T01:34:11.756Z,1011.35
2022-08-08T01:35:12.498Z,1011.40
2022-08-08T01:36:12.181Z,1011.43
2022-08-08T01:37:13.451Z,1011.44
2022-08-08T01:38:11.681Z,1011.44
2022-08-08T01:39:23.236Z,1011.43
2022-08-08T01:40:14.782Z,1011.44
2022-08-08T01:41:16.030Z,1011.46
2022-08-08T01:42:11.607Z,1011.48
2022-08-08T01:43:11.613Z,1011.45
2022-08-08T01:44:11.611Z,1011.52
2022-08-08T01:45:13.895Z,1011.48
2022-08-08T01:46:11.546Z,1011.49
2022-08-08T01:48:13.743Z,1011.49
2022-08-08T01:48:23.526Z,1011.47
2022-08-08T01:49:22.981Z,1011.49
2022-08-08T01:50:11.487Z,1011.51
2022-08-08T01:51:17.160Z,1011.51
2022-08-08T01:53:14.995Z,1011.48
2022-08-08T01:55:17.045Z,1011.50
2022-08-08T01:55:17.414Z,1011.52
2022-08-08T01:55:27.208Z,1011.50
2022-08-08T01:56:26.758Z,1011.50
2022-08-08T01:57:17.239Z,1011.51
2022-08-08T01:58:13.660Z,1011.51
2022-08-08T01:59:11.316Z,1011.51
2022-08-08T02:00:13.144Z,1011.48
2022-08-08T02:01:16.093Z,1011.49
2022-08-08T02:02:34.224Z,1011.49
2022-08-08T02:03:54.315Z,1011.50
2022-08-08T02:04:11.242Z,1011.48
2022-08-08T02:05:11.232Z,1011.54
2022-08-08T02:06:32.391Z,1011.53
2022-08-08T02:07:11.194Z,1011.52
2022-08-08T02:08:11.175Z,1011.52
2022-08-08T02:09:15.888Z,1011.51
2022-08-08T02:10:12.075Z,1011.56
2022-08-08T02:11:23.305Z,1011.55
2022-08-08T02:12:12.579Z,1011.56
2022-08-08T02:13:53.108Z,1011.55
2022-08-08T02:14:11.097Z,1011.58
2022-08-08T02:15:12.463Z,1011.62
2022-08-08T02:16:20.574Z,1011.62
2022-08-08T02:17:17.885Z,1011.60
2022-08-08T02:18:11.015Z,1011.61
2022-08-08T02:19:41.586Z,1011.60
2022-08-08T02:20:15.859Z,1011.61
2022-08-08T02:21:13.191Z,1011.64
2022-08-08T02:22:13.307Z,1011.66
2022-08-08T02:23:16.403Z,1011.66
2022-08-08T02:24:10.900Z,1011.61
2022-08-08T02:25:11.566Z,1011.66
2022-08-08T02:26:11.004Z,1011.65
2022-08-08T02:27:10.867Z,1011.65
2022-08-08T02:28:11.598Z,1011.64
2022-08-08T02:29:14.855Z,1011.65
2022-08-08T02:30:20.814Z,1011.65
2022-08-08T02:31:43.869Z,1011.65
2022-08-08T02:32:22.294Z,1011.64
2022-08-08T02:33:10.742Z,1011.64
2022-08-08T02:34:15.102Z,1011.67
2022-08-08T02:35:12.030Z,1011.65
2022-08-08T02:36:16.278Z,1011.67
2022-08-08T02:37:52.169Z,1011.63
2022-08-08T02:38:10.653Z,1011.63
2022-08-08T02:39:42.710Z,1011.65
2022-08-08T02:40:10.680Z,1011.65
2022-08-08T02:41:57.910Z,1011.70
2022-08-08T02:42:10.916Z,1011.63
2022-08-08T02:44:37.592Z,1011.69
2022-08-08T02:44:43.030Z,1011.70
2022-08-08T02:45:18.869Z,1011.65
2022-08-08T02:46:10.604Z,1011.66
2022-08-08T02:47:10.508Z,1011.65
2022-08-08T02:48:10.499Z,1011.66
2022-08-08T02:49:13.389Z,1011.65
2022-08-08T02:50:12.571Z,1011.61
2022-08-08T02:51:11.934Z,1011.64
2022-08-08T02:52:32.597Z,1011.61
2022-08-08T02:53:10.433Z,1011.62
2022-08-08T02:54:10.431Z,1011.64
2022-08-08T02:55:10.601Z,1011.63
2022-08-08T02:56:10.371Z,1011.61
2022-08-08T02:57:12.157Z,1011.61
2022-08-08T02:58:10.328Z,1011.64
2022-08-08T02:59:25.929Z,1011.65
2022-08-08T03:00:26.370Z,1011.63
2022-08-08T03:01:14.772Z,1011.64
2022-08-08T03:02:10.251Z,1011.62
2022-08-08T03:03:10.225Z,1011.64
2022-08-08T03:05:04.335Z,1011.68
2022-08-08T03:05:10.952Z,1011.67
2022-08-08T03:06:10.177Z,1011.68
2022-08-08T03:07:10.170Z,1011.74
2022-08-08T03:08:10.139Z,1011.75
2022-08-08T03:09:10.134Z,1011.79
2022-08-08T03:10:17.959Z,1011.78
2022-08-08T03:11:13.742Z,1011.77
2022-08-08T03:12:14.197Z,1011.78
2022-08-08T03:14:15.790Z,1011.78
2022-08-08T03:15:56.774Z,1011.82
2022-08-08T03:15:58.224Z,1011.78
2022-08-08T03:16:10.324Z,1011.79
2022-08-08T03:17:09.994Z,1011.80
2022-08-08T03:18:09.999Z,1011.80
2022-08-08T03:19:10.000Z,1011.80
2022-08-08T03:20:10.518Z,1011.80
2022-08-08T03:21:14.770Z,1011.81
2022-08-08T03:22:38.395Z,1011.81
2022-08-08T03:23:09.883Z,1011.84
2022-08-08T03:24:09.881Z,1011.83
2022-08-08T03:25:17.875Z,1011.85
2022-08-08T03:26:09.853Z,1011.83
2022-08-08T03:27:09.832Z,1011.83
2022-08-08T03:28:09.807Z,1011.83
2022-08-08T03:29:16.985Z,1011.87
2022-08-08T03:30:09.778Z,1011.91
2022-08-08T03:31:24.845Z,1011.84
2022-08-08T03:32:11.448Z,1011.86
2022-08-08T03:33:53.923Z,1011.87
2022-08-08T03:34:14.127Z,1011.86
2022-08-08T03:35:09.722Z,1011.87
2022-08-08T03:36:10.472Z,1011.89
2022-08-08T03:37:19.956Z,1011.90
2022-08-08T03:38:57.989Z,1011.90
2022-08-08T03:39:14.603Z,1011.90
2022-08-08T03:40:10.997Z,1011.90
2022-08-08T03:41:43.119Z,1011.93
2022-08-08T03:42:26.166Z,1011.91
2022-08-08T03:43:16.518Z,1011.89
2022-08-08T03:44:09.546Z,1011.94
2022-08-08T03:46:03.340Z,1011.91
2022-08-08T03:46:09.705Z,1011.94
2022-08-08T03:47:19.335Z,1011.94
2022-08-08T03:48:09.493Z,1011.93
2022-08-08T03:49:56.470Z,1011.92
2022-08-08T03:50:09.414Z,1011.92
2022-08-08T03:51:09.410Z,1011.95
2022-08-08T03:52:13.183Z,1011.96
2022-08-08T03:53:09.369Z,1011.96
2022-08-08T03:54:09.345Z,1011.98
2022-08-08T03:55:19.700Z,1012.01
2022-08-08T03:56:09.519Z,1012.01
2022-08-08T03:58:34.521Z,1012.03
2022-08-08T03:58:35.760Z,1012.02
2022-08-08T03:59:09.281Z,1012.03
2022-08-08T04:00:11.763Z,1012.05
2022-08-08T04:01:23.747Z,1012.06
2022-08-08T04:02:15.852Z,1012.03
2022-08-08T04:03:11.626Z,1012.05
2022-08-08T04:04:09.211Z,1012.02
2022-08-08T04:05:10.290Z,1012.03
2022-08-08T04:06:09.148Z,1012.01
2022-08-08T04:07:09.143Z,1012.04
2022-08-08T04:08:09.110Z,1012.00
2022-08-08T04:09:11.342Z,1012.02
2022-08-08T04:10:10.219Z,1012.03
2022-08-08T04:11:11.417Z,1011.99
2022-08-08T04:12:09.047Z,1012.05
2022-08-08T04:13:17.858Z,1012.06
2022-08-08T04:14:34.410Z,1012.08
2022-08-08T04:15:09.567Z,1012.08
2022-08-08T04:16:08.974Z,1012.07
2022-08-08T04:17:22.200Z,1012.07
2022-08-08T04:18:09.334Z,1012.11
2022-08-08T04:19:23.036Z,1012.17
2022-08-08T04:20:08.909Z,1012.11
2022-08-08T04:21:08.891Z,1012.14
2022-08-08T04:22:08.906Z,1012.09
2022-08-08T04:23:08.885Z,1012.10
2022-08-08T04:24:19.472Z,1012.11
2022-08-08T04:25:08.823Z,1012.12
2022-08-08T04:26:09.143Z,1012.13
2022-08-08T04:27:19.412Z,1012.16
2022-08-08T04:28:37.343Z,1012.17
2022-08-08T04:29:08.791Z,1012.16
2022-08-08T04:30:17.368Z,1012.19
2022-08-08T04:31:09.276Z,1012.17
2022-08-08T04:32:10.682Z,1012.16
2022-08-08T04:33:08.710Z,1012.18
2022-08-08T04:34:08.678Z,1012.21
2022-08-08T04:35:13.181Z,1012.19
2022-08-08T04:36:08.679Z,1012.18
2022-08-08T04:37:09.555Z,1012.14
2022-08-08T04:38:09.533Z,1012.21
2022-08-08T04:40:06.068Z,1012.17
2022-08-08T04:40:12.176Z,1012.18
2022-08-08T04:41:09.601Z,1012.21
2022-08-08T04:42:08.544Z,1012.20
2022-08-08T04:43:08.897Z,1012.19
2022-08-08T04:44:08.535Z,1012.21
2022-08-08T04:45:08.489Z,1012.21
2022-08-08T04:46:08.491Z,1012.19
2022-08-08T04:47:11.877Z,1012.17
2022-08-08T04:48:08.474Z,1012.17
2022-08-08T04:49:11.442Z,1012.19
2022-08-08T04:50:09.070Z,1012.23
2022-08-08T04:51:08.398Z,1012.21
2022-08-08T04:52:08.393Z,1012.19
2022-08-08T04:53:51.992Z,1012.24
2022-08-08T04:54:39.490Z,1012.22
2022-08-08T04:55:08.405Z,1012.26
2022-08-08T04:56:08.312Z,1012.28
2022-08-08T04:57:08.310Z,1012.31
2022-08-08T04:58:11.186Z,1012.32
2022-08-08T04:59:09.054Z,1012.30
2022-08-08T05:00:08.246Z,1012.33
2022-08-08T05:01:11.078Z,1012.36
2022-08-08T05:02:08.289Z,1012.34
2022-08-08T05:03:12.656Z,1012.40
2022-08-08T05:04:12.709Z,1012.36
2022-08-08T05:05:08.183Z,1012.37
2022-08-08T05:06:13.439Z,1012.37
2022-08-08T05:07:08.162Z,1012.40
2022-08-08T05:08:08.129Z,1012.41
2022-08-08T05:09:08.098Z,1012.42
2022-08-08T05:10:08.103Z,1012.40
2022-08-08T05:11:08.091Z,1012.44
2022-08-08T05:12:09.402Z,1012.40
2022-08-08T05:13:17.519Z,1012.43
2022-08-08T05:14:08.023Z,1012.44
2022-08-08T05:15:08.029Z,1012.42
2022-08-08T05:16:53.303Z,1012.47
2022-08-08T05:17:08.729Z,1012.45
2022-08-08T05:18:07.955Z,1012.45
2022-08-08T05:19:07.955Z,1012.46
2022-08-08T05:20:13.461Z,1012.45
2022-08-08T05:21:08.588Z,1012.47
2022-08-08T05:22:07.889Z,1012.47
2022-08-08T05:23:07.882Z,1012.45
2022-08-08T05:24:09.584Z,1012.50
2022-08-08T05:25:07.847Z,1012.48
2022-08-08T05:26:07.846Z,1012.50
2022-08-08T05:27:07.810Z,1012.49
2022-08-08T05:28:07.862Z,1012.47
2022-08-08T05:29:07.799Z,1012.48
2022-08-08T05:30:07.828Z,1012.48
2022-08-08T05:31:19.109Z,1012.50
2022-08-08T05:32:08.121Z,1012.50
2022-08-08T05:33:07.833Z,1012.51
2022-08-08T05:34:07.709Z,1012.51
2022-08-08T05:35:07.703Z,1012.56
2022-08-08T05:36:07.667Z,1012.54
2022-08-08T05:37:17.199Z,1012.55
2022-08-08T05:38:30.461Z,1012.55
2022-08-08T05:39:09.635Z,1012.53
2022-08-08T05:40:07.600Z,1012.57
2022-08-08T05:41:07.584Z,1012.56
2022-08-08T05:42:07.604Z,1012.54
2022-08-08T05:43:40.020Z,1012.55
2022-08-08T05:44:07.534Z,1012.53
2022-08-08T05:45:24.419Z,1012.55
2022-08-08T05:46:08.210Z,1012.54
2022-08-08T05:47:07.520Z,1012.59
2022-08-08T05:48:09.712Z,1012.56
2022-08-08T05:49:10.985Z,1012.61
2022-08-08T05:50:07.448Z,1012.61
2022-08-08T05:51:14.930Z,1012.62
2022-08-08T05:52:07.411Z,1012.63
2022-08-08T05:53:53.693Z,1012.61
2022-08-08T05:54:27.450Z,1012.64
2022-08-08T05:55:09.908Z,1012.62
2022-08-08T05:56:11.600Z,1012.62
2022-08-08T05:57:07.377Z,1012.61
2022-08-08T05:58:18.000Z,1012.64
2022-08-08T05:59:12.714Z,1012.62
2022-08-08T06:00:24.958Z,1012.60
2022-08-08T06:01:08.085Z,1012.63
2022-08-08T06:02:10.092Z,1012.60
2022-08-08T06:03:07.265Z,1012.60
2022-08-08T06:04:13.541Z,1012.62
2022-08-08T06:05:33.460Z,1012.61
2022-08-08T06:06:07.197Z,1012.67
2022-08-08T06:07:07.180Z,1012.64
2022-08-08T06:08:09.714Z,1012.60
2022-08-08T06:09:41.947Z,1012.61
2022-08-08T06:10:07.177Z,1012.63
2022-08-08T06:11:07.128Z,1012.65
2022-08-08T06:12:07.111Z,1012.59
2022-08-08T06:13:07.092Z,1012.63
2022-08-08T06:14:07.101Z,1012.60
2022-08-08T06:15:07.093Z,1012.61
2022-08-08T06:16:07.617Z,1012.61
2022-08-08T06:17:07.031Z,1012.62
2022-08-08T06:18:20.098Z,1012.64
2022-08-08T06:19:07.227Z,1012.65
2022-08-08T06:20:06.986Z,1012.66
2022-08-08T06:21:28.411Z,1012.66
2022-08-08T06:22:32.259Z,1012.68
2022-08-08T06:23:06.955Z,1012.68
2022-08-08T06:24:22.799Z,1012.71
2022-08-08T06:25:06.926Z,1012.70
2022-08-08T06:26:38.413Z,1012.70
2022-08-08T06:27:06.890Z,1012.70
2022-08-08T06:28:06.889Z,1012.67
2022-08-08T06:29:18.743Z,1012.71
2022-08-08T06:30:20.003Z,1012.67
2022-08-08T06:31:09.547Z,1012.67
2022-08-08T06:32:10.229Z,1012.68
2022-08-08T06:33:09.389Z,1012.67
2022-08-08T06:34:26.126Z,1012.71
2022-08-08T06:36:00.487Z,1012.71
2022-08-08T06:36:10.098Z,1012.71
2022-08-08T06:37:25.230Z,1012.74
2022-08-08T06:38:09.415Z,1012.73
2022-08-08T06:39:06.948Z,1012.72
2022-08-08T06:40:14.238Z,1012.73
2022-08-08T06:41:06.695Z,1012.75
2022-08-08T06:42:06.681Z,1012.76
2022-08-08T06:43:06.685Z,1012.81
2022-08-08T06:44:06.666Z,1012.78
2022-08-08T06:45:06.640Z,1012.76
2022-08-08T06:46:08.790Z,1012.79
2022-08-08T06:47:06.610Z,1012.84
2022-08-08T06:48:06.616Z,1012.80
2022-08-08T06:49:06.614Z,1012.77
2022-08-08T06:50:06.610Z,1012.81
2022-08-08T06:51:07.600Z,1012.83
2022-08-08T06:52:06.548Z,1012.82
2022-08-08T06:53:09.919Z,1012.83
2022-08-08T06:54:06.553Z,1012.86
2022-08-08T06:55:06.558Z,1012.80
2022-08-08T06:56:06.513Z,1012.82
2022-08-08T06:57:06.486Z,1012.83
2022-08-08T06:58:06.739Z,1012.87
2022-08-08T06:59:09.814Z,1012.85
2022-08-08T07:00:12.344Z,1012.82
2022-08-08T07:01:11.346Z,1012.84
2022-08-08T07:02:26.451Z,1012.83
2022-08-08T07:03:06.456Z,1012.86
2022-08-08T07:04:39.701Z,1012.85
2022-08-08T07:05:06.425Z,1012.80
2022-08-08T07:06:06.378Z,1012.81
2022-08-08T07:07:10.337Z,1012.84
2022-08-08T07:08:06.350Z,1012.85
2022-08-08T07:09:06.353Z,1012.86
2022-08-08T07:10:06.347Z,1012.85
2022-08-08T07:11:07.637Z,1012.82
2022-08-08T07:12:09.131Z,1012.82
2022-08-08T07:13:06.295Z,1012.85
2022-08-08T07:14:06.293Z,1012.83
2022-08-08T07:15:06.284Z,1012.79
2022-08-08T07:16:10.692Z,1012.81
2022-08-08T07:17:09.196Z,1012.84
2022-08-08T07:18:36.064Z,1012.81
2022-08-08T07:19:06.219Z,1012.85
2022-08-08T07:20:06.217Z,1012.87
2022-08-08T07:21:06.206Z,1012.85
2022-08-08T07:22:11.953Z,1012.83
2022-08-08T07:23:06.186Z,1012.85
2022-08-08T07:24:06.161Z,1012.89
2022-08-08T07:25:06.841Z,1012.89
2022-08-08T07:26:06.142Z,1012.87
2022-08-08T07:27:06.141Z,1012.87
2022-08-08T07:28:07.739Z,1012.90
2022-08-08T07:29:08.294Z,1012.90
2022-08-08T07:30:12.107Z,1012.93
2022-08-08T07:31:06.089Z,1012.88
2022-08-08T07:32:06.086Z,1012.87
2022-08-08T07:33:06.085Z,1012.90
2022-08-08T07:34:08.680Z,1012.91
2022-08-08T07:35:06.134Z,1012.87
2022-08-08T07:36:06.017Z,1012.90
2022-08-08T07:37:11.741Z,1012.91
2022-08-08T07:38:10.198Z,1012.94
2022-08-08T07:39:06.014Z,1012.92
2022-08-08T07:40:06.029Z,1012.91
2022-08-08T07:41:05.958Z,1012.91
2022-08-08T07:42:05.957Z,1012.94
2022-08-08T07:43:09.519Z,1012.94
2022-08-08T07:44:17.672Z,1012.97
2022-08-08T07:45:05.928Z,1012.98
2022-08-08T07:46:23.503Z,1013.00
2022-08-08T07:47:05.890Z,1013.00
2022-08-08T07:48:05.898Z,1013.00
2022-08-08T07:49:05.888Z,1013.01
2022-08-08T07:50:05.856Z,1012.97
2022-08-08T07:51:05.835Z,1012.98
2022-08-08T07:52:05.824Z,1013.02
2022-08-08T07:53:05.826Z,1013.00
2022-08-08T07:54:05.816Z,1012.98
2022-08-08T07:55:06.394Z,1012.98
2022-08-08T07:56:06.669Z,1012.97
2022-08-08T07:57:09.095Z,1013.00
2022-08-08T07:58:05.757Z,1013.01
2022-08-08T07:59:05.973Z,1013.00
2022-08-08T08:00:15.895Z,1012.99
2022-08-08T08:01:05.773Z,1013.01
2022-08-08T08:02:36.537Z,1013.02
2022-08-08T08:03:07.126Z,1013.07
2022-08-08T08:04:05.695Z,1013.03
2022-08-08T08:05:05.695Z,1013.07
2022-08-08T08:06:05.681Z,1013.03
2022-08-08T08:07:05.663Z,1013.06
2022-08-08T08:08:05.646Z,1013.05
2022-08-08T08:09:05.660Z,1013.07
2022-08-08T08:10:05.635Z,1013.04
2022-08-08T08:11:05.638Z,1013.01
2022-08-08T08:12:05.638Z,1013.04
2022-08-08T08:13:06.170Z,1013.02
2022-08-08T08:14:07.659Z,1013.05
2022-08-08T08:15:05.567Z,1013.02
2022-08-08T08:16:05.576Z,1013.02
2022-08-08T08:17:05.580Z,1012.99
2022-08-08T08:18:05.535Z,1012.98
2022-08-08T08:19:06.158Z,1013.03
2022-08-08T08:20:05.513Z,1013.03
2022-08-08T08:21:18.586Z,1013.02
2022-08-08T08:22:07.912Z,1013.05
2022-08-08T08:23:05.513Z,1013.03
2022-08-08T08:24:05.473Z,1012.99
2022-08-08T08:25:07.950Z,1012.99
2022-08-08T08:26:05.451Z,1013.04
2022-08-08T08:27:08.373Z,1012.99
2022-08-08T08:28:05.448Z,1013.00
2022-08-08T08:29:05.454Z,1013.02
2022-08-08T08:30:07.216Z,1013.02
2022-08-08T08:31:05.419Z,1013.05
2022-08-08T08:32:06.131Z,1013.08
2022-08-08T08:33:05.381Z,1013.13
2022-08-08T08:34:05.374Z,1013.12
2022-08-08T08:35:05.381Z,1013.14
2022-08-08T08:36:19.270Z,1013.12
2022-08-08T08:37:07.741Z,1013.17
2022-08-08T08:38:17.893Z,1013.14
2022-08-08T08:39:07.564Z,1013.07
2022-08-08T08:40:05.307Z,1013.09
2022-08-08T08:41:06.233Z,1013.08
2022-08-08T08:42:06.170Z,1013.08
2022-08-08T08:43:08.987Z,1013.08
2022-08-08T08:44:13.321Z,1013.10
2022-08-08T08:45:21.849Z,1013.10
2022-08-08T08:46:05.749Z,1013.10
2022-08-08T08:47:05.261Z,1013.10
2022-08-08T08:48:05.229Z,1013.08
2022-08-08T08:49:05.205Z,1013.11
2022-08-08T08:50:05.195Z,1013.11
2022-08-08T08:51:05.199Z,1013.12
2022-08-08T08:52:05.217Z,1013.13
2022-08-08T08:53:27.624Z,1013.18
2022-08-08T08:54:05.130Z,1013.17
2022-08-08T08:55:05.127Z,1013.18
2022-08-08T08:56:05.130Z,1013.20
2022-08-08T08:57:15.634Z,1013.18
2022-08-08T08:58:05.121Z,1013.23
2022-08-08T08:59:05.246Z,1013.16
2022-08-08T09:00:11.375Z,1013.16
2022-08-08T09:01:10.272Z,1013.20
2022-08-08T09:02:05.115Z,1013.19
2022-08-08T09:03:05.060Z,1013.19
2022-08-08T09:04:05.693Z,1013.20
2022-08-08T09:05:05.001Z,1013.23
2022-08-08T09:06:04.991Z,1013.22
2022-08-08T09:07:12.211Z,1013.22
2022-08-08T09:08:18.307Z,1013.21
2022-08-08T09:09:04.992Z,1013.22
2022-08-08T09:10:05.003Z,1013.21
2022-08-08T09:11:04.936Z,1013.24
2022-08-08T09:12:07.483Z,1013.21
2022-08-08T09:13:04.947Z,1013.27
2022-08-08T09:14:04.933Z,1013.30
2022-08-08T09:15:06.126Z,1013.31
2022-08-08T09:16:04.877Z,1013.31
2022-08-08T09:17:11.686Z,1013.33
2022-08-08T09:18:04.867Z,1013.33
2022-08-08T09:19:04.857Z,1013.30
2022-08-08T09:22:02.791Z,1013.34
2022-08-08T09:22:02.793Z,1013.32
2022-08-08T09:22:06.358Z,1013.31
2022-08-08T09:23:04.804Z,1013.37
2022-08-08T09:24:04.808Z,1013.37
2022-08-08T09:25:04.820Z,1013.33
2022-08-08T09:26:04.856Z,1013.35
2022-08-08T09:27:05.715Z,1013.39
2022-08-08T09:28:05.312Z,1013.41
2022-08-08T09:29:08.461Z,1013.44
2022-08-08T09:30:04.746Z,1013.42
2022-08-08T09:31:12.677Z,1013.43
2022-08-08T09:32:04.726Z,1013.48
2022-08-08T09:33:55.710Z,1013.50
2022-08-08T09:34:31.372Z,1013.52
2022-08-08T09:35:08.278Z,1013.50
2022-08-08T09:36:04.688Z,1013.50
2022-08-08T09:37:57.950Z,1013.48
2022-08-08T09:38:05.667Z,1013.48
2022-08-08T09:39:15.215Z,1013.46
2022-08-08T09:40:04.621Z,1013.47
2022-08-08T09:41:04.620Z,1013.43
2022-08-08T09:42:20.907Z,1013.49
2022-08-08T09:43:06.953Z,1013.46
2022-08-08T09:44:12.887Z,1013.48
2022-08-08T09:45:08.241Z,1013.48
2022-08-08T09:46:06.588Z,1013.49
2022-08-08T09:47:05.032Z,1013.49
2022-08-08T09:48:16.076Z,1013.52
2022-08-08T09:49:40.980Z,1013.49
2022-08-08T09:50:10.031Z,1013.51
2022-08-08T09:51:05.370Z,1013.58
2022-08-08T09:52:07.909Z,1013.58
2022-08-08T09:53:23.453Z,1013.53
2022-08-08T09:54:08.488Z,1013.56
2022-08-08T09:55:04.486Z,1013.55
2022-08-08T09:56:06.692Z,1013.57
2022-08-08T09:57:04.437Z,1013.55
2022-08-08T09:58:04.424Z,1013.58
2022-08-08T09:59:20.000Z,1013.53
2022-08-08T10:01:15.264Z,1013.60
2022-08-08T10:02:14.522Z,1013.59
2022-08-08T10:03:04.379Z,1013.59
2022-08-08T10:04:04.696Z,1013.59
2022-08-08T10:05:14.383Z,1013.60
2022-08-08T10:06:04.385Z,1013.54
2022-08-08T10:07:07.385Z,1013.53
2022-08-08T10:08:04.376Z,1013.48
2022-08-08T10:09:04.309Z,1013.49
2022-08-08T10:10:06.961Z,1013.46
2022-08-08T10:12:22.437Z,1013.50
2022-08-08T10:12:26.352Z,1013.48
2022-08-08T10:13:14.095Z,1013.46
2022-08-08T10:14:06.212Z,1013.46
2022-08-08T10:15:04.747Z,1013.46
2022-08-08T10:16:04.267Z,1013.47
2022-08-08T10:17:30.283Z,1013.43
2022-08-08T10:18:11.655Z,1013.43
2022-08-08T10:19:04.760Z,1013.43
2022-08-08T10:20:04.402Z,1013.41
2022-08-08T10:21:08.554Z,1013.43
2022-08-08T10:22:04.176Z,1013.44
2022-08-08T10:23:04.180Z,1013.40
2022-08-08T10:24:04.166Z,1013.50
2022-08-08T10:25:05.245Z,1013.43
2022-08-08T10:26:04.126Z,1013.40
2022-08-08T10:27:04.112Z,1013.46
2022-08-08T10:28:04.111Z,1013.45
2022-08-08T10:29:04.116Z,1013.48
2022-08-08T10:30:04.826Z,1013.43
2022-08-08T10:31:04.749Z,1013.47
2022-08-08T10:32:04.057Z,1013.42
2022-08-08T10:33:04.049Z,1013.47
2022-08-08T10:34:19.345Z,1013.42
2022-08-08T10:35:04.050Z,1013.43
2022-08-08T10:36:20.067Z,1013.44
2022-08-08T10:37:04.677Z,1013.48
2022-08-08T10:38:05.575Z,1013.46
2022-08-08T10:39:07.103Z,1013.53
2022-08-08T10:40:06.877Z,1013.46
2022-08-08T10:41:03.979Z,1013.48
2022-08-08T10:42:14.994Z,1013.48
2022-08-08T10:43:04.004Z,1013.51
2022-08-08T10:44:03.952Z,1013.47
2022-08-08T10:45:08.121Z,1013.51
2022-08-08T10:46:03.920Z,1013.52
2022-08-08T10:47:03.910Z,1013.47
2022-08-08T10:48:03.926Z,1013.50
2022-08-08T10:49:03.877Z,1013.49
2022-08-08T10:50:03.869Z,1013.56
2022-08-08T10:51:03.860Z,1013.53
2022-08-08T10:52:03.868Z,1013.61
2022-08-08T10:53:04.755Z,1013.62
2022-08-08T10:54:03.862Z,1013.65
2022-08-08T10:55:06.457Z,1013.57
2022-08-08T10:56:03.794Z,1013.64
2022-08-08T10:57:04.190Z,1013.58
2022-08-08T10:58:03.807Z,1013.61
2022-08-08T10:59:03.775Z,1013.61
2022-08-08T11:00:04.256Z,1013.60
2022-08-08T11:01:07.260Z,1013.59
2022-08-08T11:02:03.758Z,1013.54
2022-08-08T11:03:03.735Z,1013.58
2022-08-08T11:04:04.563Z,1013.57
2022-08-08T11:05:05.509Z,1013.60
2022-08-08T11:06:03.707Z,1013.61
2022-08-08T11:07:03.679Z,1013.64
2022-08-08T11:08:30.954Z,1013.63
2022-08-08T11:09:03.720Z,1013.65
2022-08-08T11:10:03.669Z,1013.68
2022-08-08T11:11:08.176Z,1013.75
2022-08-08T11:12:12.412Z,1013.67
2022-08-08T11:13:28.164Z,1013.65
2022-08-08T11:14:03.664Z,1013.66
2022-08-08T11:15:03.611Z,1013.65
2022-08-08T11:16:08.011Z,1013.63
2022-08-08T11:17:04.281Z,1013.62
2022-08-08T11:18:03.558Z,1013.65
2022-08-08T11:19:03.545Z,1013.56
2022-08-08T11:20:12.386Z,1013.62
2022-08-08T11:21:10.005Z,1013.62
2022-08-08T11:22:03.912Z,1013.59
2022-08-08T11:23:05.742Z,1013.57
2022-08-08T11:24:03.489Z,1013.53
2022-08-08T11:25:03.477Z,1013.63
2022-08-08T11:26:03.465Z,1013.64
2022-08-08T11:27:19.894Z,1013.61
2022-08-08T11:28:03.490Z,1013.60
2022-08-08T11:29:04.424Z,1013.62
2022-08-08T11:30:20.544Z,1013.53
2022-08-08T11:31:04.065Z,1013.60
2022-08-08T11:32:03.415Z,1013.58
2022-08-08T11:33:05.274Z,1013.56
2022-08-08T11:34:23.455Z,1013.55
2022-08-08T11:35:24.905Z,1013.55
2022-08-08T11:36:03.350Z,1013.57
2022-08-08T11:37:14.872Z,1013.56
2022-08-08T11:38:38.906Z,1013.61
2022-08-08T11:39:03.386Z,1013.65
2022-08-08T11:40:04.375Z,1013.65
2022-08-08T11:41:03.299Z,1013.68
2022-08-08T11:42:03.290Z,1013.72
2022-08-08T11:43:03.289Z,1013.69
2022-08-08T11:44:03.378Z,1013.72
2022-08-08T11:45:03.300Z,1013.72
2022-08-08T11:46:13.371Z,1013.72
2022-08-08T11:47:03.233Z,1013.75
2022-08-08T11:48:04.888Z,1013.72
2022-08-08T11:49:04.313Z,1013.74
2022-08-08T11:50:03.224Z,1013.71
2022-08-08T11:51:30.794Z,1013.72
2022-08-08T11:52:03.333Z,1013.73
2022-08-08T11:53:05.798Z,1013.73
2022-08-08T11:54:04.125Z,1013.73
2022-08-08T11:55:03.161Z,1013.72
2022-08-08T11:56:03.169Z,1013.75
2022-08-08T11:57:03.155Z,1013.71
2022-08-08T11:58:08.434Z,1013.68
2022-08-08T11:59:03.095Z,1013.71
2022-08-08T12:00:05.993Z,1013.72
2022-08-08T12:01:03.098Z,1013.76
2022-08-08T12:02:30.593Z,1013.74
2022-08-08T12:03:03.129Z,1013.76
2022-08-08T12:04:03.261Z,1013.79
2022-08-08T12:05:03.038Z,1013.77
2022-08-08T12:06:03.037Z,1013.81